MOOI WEER BOXTEL

Weerstation in Boxtel

Actuele weerinformatie en voorspellingen


Onweer radar Meer informatie blitzortung!


Regen radar Meer informatie rain snow radar


Meer informatie

Template documentation
and downloads

Weblog Hans on Experience

Profiel Hans Mestrum



Het weer levert geen direct gevaar op.    Er zijn geen waarschuwingen afgegeven.

Weather Underground Historische gegevens

Dagelijkse Samenvatting oktober 17, 2018 Eenheden:  Metrisch    Engels   Beide
« Vorige Dag
Volgende Dag »
Dagelijkse Wekelijkse Maandelijkse Jaarlijkse Aangepaste
  Huidig: Hoog: Laag: Gemiddeld:
Temperatuur: -6.4 °C -17.8 °C -12.4 °C -10.2 °C
Dauwpunt: -9.7 °C -17.8 °C -13 °C -11.6 °C
Vochtigheid: 69 % Humidity % 67 % 85 %
Wind snelheid: 0 km/h 0 km/h 0 km/h 0.2 km/h
Windvlaag: 0 km/h 0 km/h - -
Wind:Calm - - SE
Luchtdruk: 34418.7 hPa 0 hPa 34371.3 hPa -
Neerslag: 0 mm      
Historical Graphs
 
 
Tabel voor oktober 17, 2018
Tijd Temperatuur Dauwpunt Luchtdruk Wind Wind snelheid Windvlaag Vochtigheid Regenval per uur
-17.8 °C -17.8 °C 0 hPa Calm     Humidity % 0 mm
00:04 -9.3 °C -11.8 °C 34384.8 hPa Calm     74 % 0 mm
00:09 -9.4 °C -11.9 °C 34384.8 hPa Calm     74 % 0 mm
00:14 -9.5 °C -11.9 °C 34384.8 hPa Calm     75 % 0 mm
00:19 -9.6 °C -11.9 °C 34371.3 hPa Calm     76 % 0 mm
00:24 -9.7 °C -12 °C 34371.3 hPa Calm     76 % 0 mm
00:29 -9.7 °C -11.9 °C 34384.8 hPa Calm     77 % 0 mm
00:34 -9.7 °C -11.9 °C 34384.8 hPa Calm     77 % 0 mm
00:38 -9.6 °C -11.8 °C 34384.8 hPa Calm     77 % 0 mm
00:44 -9.6 °C -11.8 °C 34371.3 hPa Calm     77 % 0 mm
00:49 -9.6 °C -11.9 °C 34371.3 hPa Calm     76 % 0 mm
00:54 -9.6 °C -11.9 °C 34384.8 hPa Calm     76 % 0 mm
00:59 -9.6 °C -11.9 °C 34384.8 hPa Calm     76 % 0 mm
01:04 -9.6 °C -11.9 °C 34384.8 hPa Calm     76 % 0 mm
01:09 -9.5 °C -11.8 °C 34384.8 hPa Calm     76 % 0 mm
01:13 -9.6 °C -11.9 °C 34384.8 hPa Calm     76 % 0 mm
01:19 -9.6 °C -11.9 °C 34371.3 hPa Calm     76 % 0 mm
01:24 -9.6 °C -11.8 °C 34384.8 hPa Calm     77 % 0 mm
01:29 -9.7 °C -11.9 °C 34371.3 hPa Calm     77 % 0 mm
01:34 -9.8 °C -12 °C 34371.3 hPa Calm     77 % 0 mm
01:39 -9.8 °C -11.9 °C 34384.8 hPa Calm     78 % 0 mm
01:44 -9.8 °C -11.9 °C 34384.8 hPa Calm     78 % 0 mm
01:49 -9.9 °C -12 °C 34384.8 hPa Calm     78 % 0 mm
01:54 -9.9 °C -12 °C 34371.3 hPa Calm     78 % 0 mm
01:59 -9.9 °C -12.1 °C 34371.3 hPa Calm     78 % 0 mm
02:04 -10 °C -12 °C 34371.3 hPa Calm     79 % 0 mm
02:09 -9.9 °C -11.9 °C 34371.3 hPa Calm     79 % 0 mm
02:14 -9.9 °C -11.8 °C 34371.3 hPa Calm     80 % 0 mm
02:19 -9.9 °C -11.9 °C 34371.3 hPa Calm     79 % 0 mm
02:24 -10 °C -12 °C 34371.3 hPa Calm     79 % 0 mm
02:29 -10 °C -11.9 °C 34371.3 hPa Calm     80 % 0 mm
02:34 -10.1 °C -12.1 °C 34371.3 hPa Calm     79 % 0 mm
02:39 -10.1 °C -12.1 °C 34371.3 hPa Calm     79 % 0 mm
02:44 -10.1 °C -12 °C 34371.3 hPa Calm     80 % 0 mm
02:49 -10.2 °C -12.2 °C 34371.3 hPa Calm     79 % 0 mm
02:54 -10.2 °C -12.2 °C 34384.8 hPa Calm     79 % 0 mm
02:59 -10.4 °C -12.3 °C 34384.8 hPa Calm     80 % 0 mm
03:04 -10.4 °C -12.3 °C 34384.8 hPa Calm     80 % 0 mm
03:09 -10.6 °C -12.3 °C 34384.8 hPa Calm     81 % 0 mm
03:14 -10.6 °C -12.3 °C 34384.8 hPa Calm     82 % 0 mm
03:19 -10.7 °C -12.3 °C 34384.8 hPa Calm     82 % 0 mm
03:24 -10.7 °C -12.3 °C 34384.8 hPa Calm     83 % 0 mm
03:29 -10.7 °C -12.3 °C 34384.8 hPa Calm     83 % 0 mm
03:34 -10.8 °C -12.3 °C 34395 hPa Calm     83 % 0 mm
03:38 -10.8 °C -12.3 °C 34384.8 hPa Calm     84 % 0 mm
03:44 -10.9 °C -12.4 °C 34384.8 hPa Calm     84 % 0 mm
03:49 -10.9 °C -12.4 °C 34384.8 hPa Calm     84 % 0 mm
03:54 -11 °C -12.3 °C 34384.8 hPa Calm     85 % 0 mm
03:59 -11.1 °C -12.4 °C 34384.8 hPa Calm     85 % 0 mm
04:04 -11.2 °C -12.5 °C 34384.8 hPa Calm     85 % 0 mm
04:09 -11.2 °C -12.4 °C 34384.8 hPa Calm     86 % 0 mm
04:14 -11.2 °C -12.4 °C 34384.8 hPa Calm     87 % 0 mm
04:19 -11.3 °C -12.6 °C 34384.8 hPa Calm     86 % 0 mm
04:24 -11.3 °C -12.5 °C 34384.8 hPa Calm     87 % 0 mm
04:29 -11.4 °C -12.6 °C 34384.8 hPa Calm     87 % 0 mm
04:34 -11.5 °C -12.7 °C 34371.3 hPa Calm     87 % 0 mm
04:38 -11.6 °C -12.7 °C 34371.3 hPa Calm     87 % 0 mm
04:44 -11.5 °C -12.4 °C 34384.8 hPa Calm     89 % 0 mm
04:49 -11.5 °C -12.4 °C 34384.8 hPa Calm     89 % 0 mm
04:54 -11.6 °C -12.5 °C 34384.8 hPa Calm     89 % 0 mm
04:59 -11.6 °C -12.6 °C 34384.8 hPa Calm     89 % 0 mm
05:04 -11.5 °C -12.4 °C 34384.8 hPa Calm     90 % 0 mm
05:09 -11.4 °C -12.3 °C 34384.8 hPa Calm     90 % 0 mm
05:14 -11.4 °C -12.3 °C 34384.8 hPa Calm     90 % 0 mm
05:19 -11.4 °C -12.3 °C 34384.8 hPa Calm     90 % 0 mm
05:24 -11.3 °C -12.2 °C 34384.8 hPa Calm     90 % 0 mm
05:29 -11.3 °C -12.2 °C 34384.8 hPa Calm     90 % 0 mm
05:34 -11.3 °C -12.3 °C 34384.8 hPa Calm     89 % 0 mm
05:39 -11.3 °C -12.3 °C 34395 hPa Calm     89 % 0 mm
05:44 -11.3 °C -12.3 °C 34395 hPa Calm     89 % 0 mm
05:49 -11.4 °C -12.4 °C 34395 hPa Calm     89 % 0 mm
05:54 -11.4 °C -12.4 °C 34395 hPa Calm     89 % 0 mm
05:59 -11.4 °C -12.3 °C 34395 hPa Calm     90 % 0 mm
06:04 -11.5 °C -12.4 °C 34395 hPa Calm     90 % 0 mm
06:09 -11.5 °C -12.4 °C 34395 hPa Calm     90 % 0 mm
06:14 -11.4 °C -12.3 °C 34395 hPa Calm     90 % 0 mm
06:18 -11.5 °C -12.4 °C 34395 hPa Calm     90 % 0 mm
06:24 -11.4 °C -12.2 °C 34395 hPa Calm     91 % 0 mm
06:29 -11.5 °C -12.4 °C 34395 hPa Calm     90 % 0 mm
06:34 -11.6 °C -12.4 °C 34384.8 hPa Calm     90 % 0 mm
06:39 -11.6 °C -12.3 °C 34395 hPa Calm     91 % 0 mm
06:44 -11.6 °C -12.3 °C 34395 hPa Calm     91 % 0 mm
06:49 -11.7 °C -12.4 °C 34395 hPa Calm     91 % 0 mm
06:54 -11.7 °C -12.5 °C 34395 hPa Calm     91 % 0 mm
06:59 -11.8 °C -12.6 °C 34384.8 hPa Calm     91 % 0 mm
07:04 -11.8 °C -12.6 °C 34384.8 hPa Calm     91 % 0 mm
07:09 -11.9 °C -12.7 °C 34384.8 hPa Calm     91 % 0 mm
07:14 -11.9 °C -12.7 °C 34395 hPa Calm     91 % 0 mm
07:19 -12 °C -12.8 °C 34395 hPa Calm     91 % 0 mm
07:24 -12.1 °C -12.7 °C 34405.1 hPa Calm     92 % 0 mm
07:29 -12.1 °C -12.7 °C 34405.1 hPa Calm     92 % 0 mm
07:34 -12.1 °C -12.8 °C 34405.1 hPa Calm     92 % 0 mm
07:39 -12.1 °C -12.8 °C 34405.1 hPa Calm     92 % 0 mm
07:44 -12.1 °C -12.8 °C 34405.1 hPa Calm     92 % 0 mm
07:49 -12.2 °C -12.8 °C 34405.1 hPa Calm     93 % 0 mm
07:54 -12.2 °C -12.8 °C 34405.1 hPa Calm     93 % 0 mm
07:59 -12.3 °C -12.9 °C 34405.1 hPa Calm     93 % 0 mm
08:04 -12.3 °C -12.9 °C 34405.1 hPa Calm     93 % 0 mm
08:09 -12.4 °C -13 °C 34405.1 hPa Calm     93 % 0 mm
08:14 -12.3 °C -12.9 °C 34405.1 hPa Calm     93 % 0 mm
08:19 -12.3 °C -12.8 °C 34418.7 hPa Calm     94 % 0 mm
08:24 -12.3 °C -12.8 °C 34418.7 hPa Calm     94 % 0 mm
08:28 -12.3 °C -12.8 °C 34418.7 hPa Calm     94 % 0 mm
08:34 -12.2 °C -12.7 °C 34418.7 hPa Calm     94 % 0 mm
08:39 -12.2 °C -12.7 °C 34418.7 hPa Calm     94 % 0 mm
08:44 -12.2 °C -12.7 °C 34418.7 hPa Calm     94 % 0 mm
08:49 -12.2 °C -12.7 °C 34418.7 hPa Calm     94 % 0 mm
08:54 -12.1 °C -12.6 °C 34418.7 hPa Calm     94 % 0 mm
08:59 -12.1 °C -12.5 °C 34418.7 hPa Calm     95 % 0 mm
09:04 -12 °C -12.4 °C 34428.8 hPa Calm     95 % 0 mm
09:09 -11.9 °C -12.3 °C 34418.7 hPa Calm     95 % 0 mm
09:14 -11.8 °C -12.3 °C 34418.7 hPa Calm     95 % 0 mm
09:19 -11.8 °C -12.2 °C 34418.7 hPa Calm     95 % 0 mm
09:24 -11.7 °C -12.1 °C 34418.7 hPa Calm     95 % 0 mm
09:29 -11.6 °C -11.9 °C 34428.8 hPa Calm     96 % 0 mm
09:34 -11.4 °C -11.8 °C 34418.7 hPa Calm     96 % 0 mm
09:39 -11.3 °C -11.6 °C 34428.8 hPa Calm     96 % 0 mm
09:44 -11.2 °C -11.7 °C 34428.8 hPa Calm     95 % 0 mm
09:49 -11.2 °C -11.6 °C 34428.8 hPa Calm     95 % 0 mm
09:54 -11.1 °C -11.6 °C 34428.8 hPa Calm     95 % 0 mm
09:59 -11.1 °C -11.5 °C 34428.8 hPa Calm     95 % 0 mm
10:04 -11 °C -11.4 °C 34428.8 hPa Calm     95 % 0 mm
10:09 -10.9 °C -11.4 °C 34428.8 hPa Calm     95 % 0 mm
10:14 -10.8 °C -11.2 °C 34428.8 hPa Calm     96 % 0 mm
10:19 -10.8 °C -11.2 °C 34428.8 hPa Calm     95 % 0 mm
10:24 -10.7 °C -11.1 °C 34428.8 hPa Calm     96 % 0 mm
10:29 -10.6 °C -10.9 °C 34428.8 hPa Calm     96 % 0 mm
10:34 -10.6 °C -11 °C 34428.8 hPa Calm     95 % 0 mm
10:39 -10.4 °C -10.9 °C 34442.4 hPa Calm     95 % 0 mm
10:44 -10.3 °C -10.7 °C 34442.4 hPa Calm     96 % 0 mm
10:49 -10.2 °C -10.6 °C 34442.4 hPa Calm   2.6 km/h 96 % 0 mm
10:54 -10.2 °C -10.6 °C 34442.4 hPa Calm     95 % 0 mm
10:59 -10.1 °C -10.6 °C 34442.4 hPa Calm     95 % 0 mm
11:04 -10 °C -10.4 °C 34442.4 hPa Calm     95 % 0 mm
11:09 -9.9 °C -10.3 °C 34442.4 hPa Calm     95 % 0 mm
11:14 -9.8 °C -10.2 °C 34442.4 hPa WSW 2.9 km/h 2.6 km/h 95 % 0 mm
11:19 -9.7 °C -10.2 °C 34442.4 hPa Calm   2.6 km/h 94 % 0 mm
11:24 -9.6 °C -10.2 °C 34442.4 hPa Calm     94 % 0 mm
11:29 -9.4 °C -9.8 °C 34442.4 hPa Calm     95 % 0 mm
11:34 -9.3 °C -9.9 °C 34442.4 hPa Calm     94 % 0 mm
11:39 -9.3 °C -9.8 °C 34442.4 hPa Calm     94 % 0 mm
11:44 -9 °C -9.6 °C 34442.4 hPa Calm     94 % 0 mm
11:49 -8.9 °C -9.7 °C 34442.4 hPa Calm     91 % 0 mm
11:54 -8.7 °C -9.5 °C 34442.4 hPa Calm   2.6 km/h 91 % 0 mm
11:58 -8.4 °C -9.6 °C 34442.4 hPa Calm     88 % 0 mm
12:04 -8.1 °C -9.3 °C 34442.4 hPa Calm     87 % 0 mm
12:09 -7.7 °C -9.1 °C 34442.4 hPa Calm     86 % 0 mm
12:14 -7.7 °C -9.5 °C 34442.4 hPa Calm   2.6 km/h 81 % 0 mm
12:19 -7.7 °C -9.4 °C 34442.4 hPa Calm   2.6 km/h 82 % 0 mm
12:24 -7.6 °C -9.4 °C 34442.4 hPa Calm   2.6 km/h 81 % 0 mm
12:29 -7.5 °C -9.4 °C 34442.4 hPa Calm   5.1 km/h 80 % 0 mm
12:34 -7.4 °C -9.5 °C 34442.4 hPa NNE 11.1 km/h 10.3 km/h 79 % 0 mm
12:39 -7.6 °C -9.7 °C 34442.4 hPa NNE 2.9 km/h 10.3 km/h 78 % 0 mm
12:44 -7.4 °C -9.5 °C 34442.4 hPa Calm     79 % 0 mm
12:49 -7.3 °C -9.4 °C 34428.8 hPa Calm   2.6 km/h 78 % 0 mm
12:54 -7.1 °C -9.3 °C 34428.8 hPa Calm   7.7 km/h 78 % 0 mm
12:59 -7.1 °C -9.4 °C 34428.8 hPa Calm   10.3 km/h 76 % 0 mm
13:04 -7.1 °C -9.7 °C 34428.8 hPa Calm   2.6 km/h 74 % 0 mm
13:09 -7.2 °C -9.8 °C 34428.8 hPa Calm     74 % 0 mm
13:14 -7.2 °C -9.7 °C 34428.8 hPa Calm     75 % 0 mm
13:19 -7.1 °C -9.7 °C 34428.8 hPa Calm   7.7 km/h 74 % 0 mm
13:24 -6.9 °C -9.6 °C 34428.8 hPa Calm     74 % 0 mm
13:28 -6.9 °C -9.6 °C 34428.8 hPa Calm     74 % 0 mm
13:34 -6.8 °C -9.6 °C 34428.8 hPa Calm     73 % 0 mm
13:39 -6.7 °C -9.6 °C 34428.8 hPa Calm     72 % 0 mm
13:44 -6.7 °C -9.8 °C 34428.8 hPa Calm   2.6 km/h 70 % 0 mm
13:49 -6.8 °C -9.9 °C 34428.8 hPa NNW 5.1 km/h 5.1 km/h 70 % 0 mm
13:54 -6.8 °C -9.8 °C 34428.8 hPa Calm     71 % 0 mm
13:59 -6.6 °C -9.7 °C 34428.8 hPa Calm     70 % 0 mm
14:04 -6.4 °C -9.8 °C 34428.8 hPa Calm   5.1 km/h 68 % 0 mm
14:08 -6.4 °C -9.8 °C 34428.8 hPa NNE 2.9 km/h 5.1 km/h 68 % 0 mm
14:14 -6.3 °C -9.6 °C 34418.7 hPa Calm   5.1 km/h 69 % 0 mm
14:19 -6.3 °C -9.8 °C 34418.7 hPa Calm   5.1 km/h 67 % 0 mm
14:24 -6.4 °C -9.8 °C 34418.7 hPa Calm   10.3 km/h 68 % 0 mm
14:29 -6.6 °C -9.8 °C 34418.7 hPa Calm   7.7 km/h 69 % 0 mm
14:34 -6.6 °C -9.8 °C 34418.7 hPa Calm   7.7 km/h 69 % 0 mm
14:39 -6.5 °C -9.8 °C 34418.7 hPa Calm     69 % 0 mm
14:43 -6.6 °C -9.8 °C 34428.8 hPa Calm   5.1 km/h 69 % 0 mm
14:48 -6.4 °C -9.7 °C 34418.7 hPa Calm     69 % 0 mm
Weerstation Boxtel
Gegevens verzameld door Weather Underground - 3.25 mb

Script ontwikkeld door  Jim McMurry - jmcmurry@mwt.net Aangepast voor de template door  Wim van der Kuil - Leuven-Template.eu

U vindt ons ook hier:

Het Weer Aktueel

UK Metoffice

European Weather Network

Weather Underground

AWEKAS

Citizen Weather Observer Program (CWOP)

HAMweather, WeatherForYou, PWS Weather

Apparatuur in gebruik:

Weerstation
Davis Vue ISS

Weerprogramma
Meteobridge

Weercomputer
Asus WL -330N3G

Webleverancier
Weerhuisje.nl

Davis Vue ISS

Meteobridge

Asus WL -330N3G

Weerhuisje.nl